sensor_id;sensor_type;location;lat;lon;timestamp;temperature;humidity
9410;DHT22;4744;52.576;13.568;2022-08-19T00:00:09;20.90;1.00
9410;DHT22;4744;52.576;13.568;2022-08-19T00:02:36;20.90;1.00
9410;DHT22;4744;52.576;13.568;2022-08-19T00:05:04;20.90;1.00
9410;DHT22;4744;52.576;13.568;2022-08-19T00:07:31;20.80;1.00
9410;DHT22;4744;52.576;13.568;2022-08-19T00:09:58;20.80;1.00
9410;DHT22;4744;52.576;13.568;2022-08-19T00:12:26;20.80;1.00
9410;DHT22;4744;52.576;13.568;2022-08-19T00:14:53;20.80;1.00
9410;DHT22;4744;52.576;13.568;2022-08-19T00:17:21;20.80;1.00
9410;DHT22;4744;52.576;13.568;2022-08-19T00:19:47;20.80;1.00
9410;DHT22;4744;52.576;13.568;2022-08-19T00:22:14;20.80;1.00
9410;DHT22;4744;52.576;13.568;2022-08-19T00:24:43;20.70;1.00
9410;DHT22;4744;52.576;13.568;2022-08-19T00:27:10;20.70;1.00
9410;DHT22;4744;52.576;13.568;2022-08-19T00:29:38;20.70;1.00
9410;DHT22;4744;52.576;13.568;2022-08-19T00:32:05;20.70;1.00
9410;DHT22;4744;52.576;13.568;2022-08-19T00:34:32;20.70;1.00
9410;DHT22;4744;52.576;13.568;2022-08-19T00:36:59;20.70;1.40
9410;DHT22;4744;52.576;13.568;2022-08-19T00:39:26;20.70;1.00
9410;DHT22;4744;52.576;13.568;2022-08-19T00:41:53;20.60;2.20
9410;DHT22;4744;52.576;13.568;2022-08-19T00:44:22;20.70;3.20
9410;DHT22;4744;52.576;13.568;2022-08-19T00:46:52;20.70;3.80
9410;DHT22;4744;52.576;13.568;2022-08-19T00:49:23;20.70;2.90
9410;DHT22;4744;52.576;13.568;2022-08-19T00:51:55;20.70;3.70
9410;DHT22;4744;52.576;13.568;2022-08-19T00:54:24;20.70;5.80
9410;DHT22;4744;52.576;13.568;2022-08-19T00:56:52;20.60;2.70
9410;DHT22;4744;52.576;13.568;2022-08-19T00:59:19;20.60;4.40
9410;DHT22;4744;52.576;13.568;2022-08-19T01:01:47;20.60;7.80
9410;DHT22;4744;52.576;13.568;2022-08-19T01:04:15;20.60;6.20
9410;DHT22;4744;52.576;13.568;2022-08-19T01:06:42;20.60;11.40
9410;DHT22;4744;52.576;13.568;2022-08-19T01:09:09;20.60;11.10
9410;DHT22;4744;52.576;13.568;2022-08-19T01:11:38;20.50;16.80
9410;DHT22;4744;52.576;13.568;2022-08-19T01:14:06;20.50;19.50
9410;DHT22;4744;52.576;13.568;2022-08-19T01:16:35;20.50;19.70
9410;DHT22;4744;52.576;13.568;2022-08-19T01:19:06;20.50;22.70
9410;DHT22;4744;52.576;13.568;2022-08-19T01:21:41;20.50;21.80
9410;DHT22;4744;52.576;13.568;2022-08-19T01:24:10;20.50;22.50
9410;DHT22;4744;52.576;13.568;2022-08-19T01:26:39;20.50;20.60
9410;DHT22;4744;52.576;13.568;2022-08-19T01:29:08;20.50;24.60
9410;DHT22;4744;52.576;13.568;2022-08-19T01:31:36;20.50;24.20
9410;DHT22;4744;52.576;13.568;2022-08-19T01:34:05;20.50;28.70
9410;DHT22;4744;52.576;13.568;2022-08-19T01:36:35;20.40;30.70
9410;DHT22;4744;52.576;13.568;2022-08-19T01:39:05;20.40;33.20
9410;DHT22;4744;52.576;13.568;2022-08-19T01:41:34;20.40;33.40
9410;DHT22;4744;52.576;13.568;2022-08-19T01:44:01;20.40;38.10
9410;DHT22;4744;52.576;13.568;2022-08-19T01:46:29;20.40;37.30
9410;DHT22;4744;52.576;13.568;2022-08-19T01:48:57;20.40;35.70
9410;DHT22;4744;52.576;13.568;2022-08-19T01:51:24;20.30;44.30
9410;DHT22;4744;52.576;13.568;2022-08-19T01:53:51;20.30;42.90
9410;DHT22;4744;52.576;13.568;2022-08-19T01:56:19;20.30;43.00
9410;DHT22;4744;52.576;13.568;2022-08-19T01:58:51;20.30;40.10
9410;DHT22;4744;52.576;13.568;2022-08-19T02:01:18;20.20;43.20
9410;DHT22;4744;52.576;13.568;2022-08-19T02:03:45;20.20;41.70
9410;DHT22;4744;52.576;13.568;2022-08-19T02:06:13;20.10;49.70
9410;DHT22;4744;52.576;13.568;2022-08-19T02:08:40;20.10;47.80
9410;DHT22;4744;52.576;13.568;2022-08-19T02:11:07;20.00;51.20
9410;DHT22;4744;52.576;13.568;2022-08-19T02:13:34;20.00;54.10
9410;DHT22;4744;52.576;13.568;2022-08-19T02:16:03;19.90;59.70
9410;DHT22;4744;52.576;13.568;2022-08-19T02:18:30;19.90;63.60
9410;DHT22;4744;52.576;13.568;2022-08-19T02:20:59;19.90;62.10
9410;DHT22;4744;52.576;13.568;2022-08-19T02:23:25;19.80;67.50
9410;DHT22;4744;52.576;13.568;2022-08-19T02:25:52;19.90;67.10
9410;DHT22;4744;52.576;13.568;2022-08-19T02:28:19;19.90;70.40
9410;DHT22;4744;52.576;13.568;2022-08-19T02:30:47;19.80;73.70
9410;DHT22;4744;52.576;13.568;2022-08-19T02:33:15;19.80;73.40
9410;DHT22;4744;52.576;13.568;2022-08-19T02:35:43;19.80;73.70
9410;DHT22;4744;52.576;13.568;2022-08-19T02:38:11;19.90;75.90
9410;DHT22;4744;52.576;13.568;2022-08-19T02:40:55;19.80;74.60
9410;DHT22;4744;52.576;13.568;2022-08-19T02:43:21;19.80;75.50
9410;DHT22;4744;52.576;13.568;2022-08-19T02:45:49;19.80;71.90
9410;DHT22;4744;52.576;13.568;2022-08-19T02:48:19;19.80;73.30
9410;DHT22;4744;52.576;13.568;2022-08-19T02:50:47;19.80;74.20
9410;DHT22;4744;52.576;13.568;2022-08-19T02:53:17;19.80;72.00
9410;DHT22;4744;52.576;13.568;2022-08-19T02:55:45;19.80;71.50
9410;DHT22;4744;52.576;13.568;2022-08-19T02:58:13;19.80;71.60
9410;DHT22;4744;52.576;13.568;2022-08-19T03:00:45;19.80;74.90
9410;DHT22;4744;52.576;13.568;2022-08-19T03:03:12;19.80;71.80
9410;DHT22;4744;52.576;13.568;2022-08-19T03:05:41;19.80;74.00
9410;DHT22;4744;52.576;13.568;2022-08-19T03:08:08;19.80;74.10
9410;DHT22;4744;52.576;13.568;2022-08-19T03:10:42;19.80;73.90
9410;DHT22;4744;52.576;13.568;2022-08-19T03:13:12;19.80;73.80
9410;DHT22;4744;52.576;13.568;2022-08-19T03:15:40;19.80;75.00
9410;DHT22;4744;52.576;13.568;2022-08-19T03:18:07;19.80;72.70
9410;DHT22;4744;52.576;13.568;2022-08-19T03:20:34;19.80;73.90
9410;DHT22;4744;52.576;13.568;2022-08-19T03:23:07;19.80;72.20
9410;DHT22;4744;52.576;13.568;2022-08-19T03:25:37;19.80;72.40
9410;DHT22;4744;52.576;13.568;2022-08-19T03:28:06;19.80;69.60
9410;DHT22;4744;52.576;13.568;2022-08-19T03:30:32;19.70;71.20
9410;DHT22;4744;52.576;13.568;2022-08-19T03:32:59;19.80;71.00
9410;DHT22;4744;52.576;13.568;2022-08-19T03:35:26;19.70;70.70
9410;DHT22;4744;52.576;13.568;2022-08-19T03:37:53;19.70;67.90
9410;DHT22;4744;52.576;13.568;2022-08-19T03:40:23;19.70;68.50
9410;DHT22;4744;52.576;13.568;2022-08-19T03:42:49;19.70;68.30
9410;DHT22;4744;52.576;13.568;2022-08-19T03:45:16;19.70;68.30
9410;DHT22;4744;52.576;13.568;2022-08-19T03:47:43;19.70;66.90
9410;DHT22;4744;52.576;13.568;2022-08-19T03:50:10;19.70;66.20
9410;DHT22;4744;52.576;13.568;2022-08-19T03:52:38;19.70;68.20
9410;DHT22;4744;52.576;13.568;2022-08-19T03:55:06;19.70;67.60
9410;DHT22;4744;52.576;13.568;2022-08-19T03:57:34;19.70;69.30
9410;DHT22;4744;52.576;13.568;2022-08-19T04:00:03;19.70;66.20
9410;DHT22;4744;52.576;13.568;2022-08-19T04:02:30;19.70;68.30
9410;DHT22;4744;52.576;13.568;2022-08-19T04:04:57;19.70;68.00
9410;DHT22;4744;52.576;13.568;2022-08-19T04:07:24;19.70;63.20
9410;DHT22;4744;52.576;13.568;2022-08-19T04:09:50;19.70;65.40
9410;DHT22;4744;52.576;13.568;2022-08-19T04:12:18;19.70;64.90
9410;DHT22;4744;52.576;13.568;2022-08-19T04:14:47;19.70;60.90
9410;DHT22;4744;52.576;13.568;2022-08-19T04:17:14;19.70;62.10
9410;DHT22;4744;52.576;13.568;2022-08-19T04:19:40;19.70;63.30
9410;DHT22;4744;52.576;13.568;2022-08-19T04:22:08;19.70;63.20
9410;DHT22;4744;52.576;13.568;2022-08-19T04:24:36;19.70;61.80
9410;DHT22;4744;52.576;13.568;2022-08-19T04:27:04;19.70;57.10
9410;DHT22;4744;52.576;13.568;2022-08-19T04:29:32;19.70;60.50
9410;DHT22;4744;52.576;13.568;2022-08-19T04:32:00;19.70;58.80
9410;DHT22;4744;52.576;13.568;2022-08-19T04:34:28;19.70;59.70
9410;DHT22;4744;52.576;13.568;2022-08-19T04:36:57;19.70;56.40
9410;DHT22;4744;52.576;13.568;2022-08-19T04:39:26;19.70;53.10
9410;DHT22;4744;52.576;13.568;2022-08-19T04:42:16;19.70;49.00
9410;DHT22;4744;52.576;13.568;2022-08-19T04:45:00;19.70;47.60
9410;DHT22;4744;52.576;13.568;2022-08-19T04:47:29;19.70;53.50
9410;DHT22;4744;52.576;13.568;2022-08-19T04:49:56;19.70;56.10
9410;DHT22;4744;52.576;13.568;2022-08-19T04:52:23;19.80;51.70
9410;DHT22;4744;52.576;13.568;2022-08-19T04:54:50;19.80;46.20
9410;DHT22;4744;52.576;13.568;2022-08-19T04:57:17;19.80;41.80
9410;DHT22;4744;52.576;13.568;2022-08-19T04:59:44;19.90;38.70
9410;DHT22;4744;52.576;13.568;2022-08-19T05:02:11;19.90;35.10
9410;DHT22;4744;52.576;13.568;2022-08-19T05:04:39;19.90;32.80
9410;DHT22;4744;52.576;13.568;2022-08-19T05:07:07;19.90;26.10
9410;DHT22;4744;52.576;13.568;2022-08-19T05:09:34;20.00;23.10
9410;DHT22;4744;52.576;13.568;2022-08-19T05:12:01;20.00;21.70
9410;DHT22;4744;52.576;13.568;2022-08-19T05:14:28;20.10;20.30
9410;DHT22;4744;52.576;13.568;2022-08-19T05:16:55;20.10;19.30
9410;DHT22;4744;52.576;13.568;2022-08-19T05:19:22;20.10;16.90
9410;DHT22;4744;52.576;13.568;2022-08-19T05:22:07;20.10;15.70
9410;DHT22;4744;52.576;13.568;2022-08-19T05:24:52;20.20;16.30
9410;DHT22;4744;52.576;13.568;2022-08-19T05:27:19;20.20;15.10
9410;DHT22;4744;52.576;13.568;2022-08-19T05:29:45;20.20;15.60
9410;DHT22;4744;52.576;13.568;2022-08-19T05:32:12;20.30;15.70
9410;DHT22;4744;52.576;13.568;2022-08-19T05:34:39;20.30;8.40
9410;DHT22;4744;52.576;13.568;2022-08-19T05:37:08;20.30;8.10
9410;DHT22;4744;52.576;13.568;2022-08-19T05:39:36;20.30;9.30
9410;DHT22;4744;52.576;13.568;2022-08-19T05:42:06;20.30;10.20
9410;DHT22;4744;52.576;13.568;2022-08-19T05:44:38;20.40;9.80
9410;DHT22;4744;52.576;13.568;2022-08-19T05:47:10;20.40;7.70
9410;DHT22;4744;52.576;13.568;2022-08-19T05:49:38;20.40;9.60
9410;DHT22;4744;52.576;13.568;2022-08-19T05:52:07;20.40;11.00
9410;DHT22;4744;52.576;13.568;2022-08-19T05:54:37;20.40;10.70
9410;DHT22;4744;52.576;13.568;2022-08-19T05:57:06;20.40;11.30
9410;DHT22;4744;52.576;13.568;2022-08-19T05:59:33;20.50;12.60
9410;DHT22;4744;52.576;13.568;2022-08-19T06:02:02;20.50;12.50
9410;DHT22;4744;52.576;13.568;2022-08-19T06:04:29;20.60;14.40
9410;DHT22;4744;52.576;13.568;2022-08-19T06:06:56;20.60;15.10
9410;DHT22;4744;52.576;13.568;2022-08-19T06:09:25;20.70;14.30
9410;DHT22;4744;52.576;13.568;2022-08-19T06:11:55;20.70;13.60
9410;DHT22;4744;52.576;13.568;2022-08-19T06:14:28;20.80;12.30
9410;DHT22;4744;52.576;13.568;2022-08-19T06:16:55;20.80;12.20
9410;DHT22;4744;52.576;13.568;2022-08-19T06:19:22;20.80;11.30
9410;DHT22;4744;52.576;13.568;2022-08-19T06:21:51;20.80;12.10
9410;DHT22;4744;52.576;13.568;2022-08-19T06:24:21;20.80;11.10
9410;DHT22;4744;52.576;13.568;2022-08-19T06:26:52;20.90;12.40
9410;DHT22;4744;52.576;13.568;2022-08-19T06:29:22;20.90;11.30
9410;DHT22;4744;52.576;13.568;2022-08-19T06:31:51;20.90;10.10
9410;DHT22;4744;52.576;13.568;2022-08-19T06:34:19;21.00;8.90
9410;DHT22;4744;52.576;13.568;2022-08-19T06:36:47;21.00;10.90
9410;DHT22;4744;52.576;13.568;2022-08-19T06:39:17;21.00;10.90
9410;DHT22;4744;52.576;13.568;2022-08-19T06:41:46;21.00;10.80
9410;DHT22;4744;52.576;13.568;2022-08-19T06:44:15;21.10;11.00
9410;DHT22;4744;52.576;13.568;2022-08-19T06:46:42;21.10;9.30
9410;DHT22;4744;52.576;13.568;2022-08-19T06:49:10;21.20;8.60
9410;DHT22;4744;52.576;13.568;2022-08-19T06:51:40;21.20;6.70
9410;DHT22;4744;52.576;13.568;2022-08-19T06:54:07;21.30;7.60
9410;DHT22;4744;52.576;13.568;2022-08-19T06:56:34;21.30;7.50
9410;DHT22;4744;52.576;13.568;2022-08-19T06:59:03;21.30;8.60
9410;DHT22;4744;52.576;13.568;2022-08-19T07:01:34;21.40;6.80
9410;DHT22;4744;52.576;13.568;2022-08-19T07:04:04;21.40;6.70
9410;DHT22;4744;52.576;13.568;2022-08-19T07:06:31;21.40;6.80
9410;DHT22;4744;52.576;13.568;2022-08-19T07:08:58;21.50;4.90
9410;DHT22;4744;52.576;13.568;2022-08-19T07:11:25;21.50;4.80
9410;DHT22;4744;52.576;13.568;2022-08-19T07:13:51;21.50;4.70
9410;DHT22;4744;52.576;13.568;2022-08-19T07:16:19;21.60;2.80
9410;DHT22;4744;52.576;13.568;2022-08-19T07:18:48;21.60;4.10
9410;DHT22;4744;52.576;13.568;2022-08-19T07:21:18;21.60;1.20
9410;DHT22;4744;52.576;13.568;2022-08-19T07:23:45;21.60;1.00
9410;DHT22;4744;52.576;13.568;2022-08-19T07:26:15;21.60;1.00
9410;DHT22;4744;52.576;13.568;2022-08-19T07:28:43;21.60;1.00
9410;DHT22;4744;52.576;13.568;2022-08-19T07:31:11;21.60;1.00
9410;DHT22;4744;52.576;13.568;2022-08-19T07:33:39;21.60;1.00
9410;DHT22;4744;52.576;13.568;2022-08-19T07:36:11;21.70;1.00
9410;DHT22;4744;52.576;13.568;2022-08-19T07:38:43;21.70;1.00
9410;DHT22;4744;52.576;13.568;2022-08-19T07:41:11;21.60;1.00
9410;DHT22;4744;52.576;13.568;2022-08-19T07:43:40;21.70;1.00
9410;DHT22;4744;52.576;13.568;2022-08-19T07:46:09;21.70;1.00
9410;DHT22;4744;52.576;13.568;2022-08-19T07:48:36;21.70;1.00
9410;DHT22;4744;52.576;13.568;2022-08-19T07:51:05;21.70;1.00
9410;DHT22;4744;52.576;13.568;2022-08-19T07:53:35;21.70;1.00
9410;DHT22;4744;52.576;13.568;2022-08-19T07:56:03;21.70;1.00
9410;DHT22;4744;52.576;13.568;2022-08-19T07:58:31;21.80;1.00
9410;DHT22;4744;52.576;13.568;2022-08-19T08:00:59;21.80;1.00
9410;DHT22;4744;52.576;13.568;2022-08-19T08:03:27;21.80;1.00
9410;DHT22;4744;52.576;13.568;2022-08-19T08:06:08;21.80;1.00
9410;DHT22;4744;52.576;13.568;2022-08-19T08:08:53;21.80;1.00
9410;DHT22;4744;52.576;13.568;2022-08-19T08:11:45;21.90;1.00
9410;DHT22;4744;52.576;13.568;2022-08-19T08:14:16;21.80;1.00
9410;DHT22;4744;52.576;13.568;2022-08-19T08:16:45;21.80;1.00
9410;DHT22;4744;52.576;13.568;2022-08-19T08:19:13;21.90;1.00
9410;DHT22;4744;52.576;13.568;2022-08-19T08:21:42;21.90;1.00
9410;DHT22;4744;52.576;13.568;2022-08-19T08:24:11;21.90;1.00
9410;DHT22;4744;52.576;13.568;2022-08-19T08:26:38;21.90;1.00
9410;DHT22;4744;52.576;13.568;2022-08-19T08:29:05;22.00;1.00
9410;DHT22;4744;52.576;13.568;2022-08-19T08:31:36;22.00;1.00
9410;DHT22;4744;52.576;13.568;2022-08-19T08:34:03;22.00;1.00
9410;DHT22;4744;52.576;13.568;2022-08-19T08:36:31;22.00;1.00
9410;DHT22;4744;52.576;13.568;2022-08-19T08:38:59;22.10;1.00
9410;DHT22;4744;52.576;13.568;2022-08-19T08:41:35;22.20;1.00
9410;DHT22;4744;52.576;13.568;2022-08-19T08:44:06;22.20;1.00
9410;DHT22;4744;52.576;13.568;2022-08-19T08:46:41;22.20;1.00
9410;DHT22;4744;52.576;13.568;2022-08-19T08:49:20;22.30;1.00
9410;DHT22;4744;52.576;13.568;2022-08-19T08:51:54;22.30;1.00
9410;DHT22;4744;52.576;13.568;2022-08-19T08:54:29;22.40;1.00
9410;DHT22;4744;52.576;13.568;2022-08-19T08:56:58;22.50;1.00
9410;DHT22;4744;52.576;13.568;2022-08-19T08:59:29;22.60;1.00
9410;DHT22;4744;52.576;13.568;2022-08-19T09:01:58;22.90;1.00
9410;DHT22;4744;52.576;13.568;2022-08-19T09:04:25;23.10;1.00
9410;DHT22;4744;52.576;13.568;2022-08-19T09:07:02;23.20;1.00
9410;DHT22;4744;52.576;13.568;2022-08-19T09:09:34;23.50;1.00
9410;DHT22;4744;52.576;13.568;2022-08-19T09:12:10;23.80;1.00
9410;DHT22;4744;52.576;13.568;2022-08-19T09:14:46;23.90;1.00
9410;DHT22;4744;52.576;13.568;2022-08-19T09:17:15;23.90;1.00
9410;DHT22;4744;52.576;13.568;2022-08-19T09:19:51;23.80;1.00
9410;DHT22;4744;52.576;13.568;2022-08-19T09:22:18;23.80;1.00
9410;DHT22;4744;52.576;13.568;2022-08-19T09:24:48;23.80;1.00
9410;DHT22;4744;52.576;13.568;2022-08-19T09:27:16;23.80;1.00
9410;DHT22;4744;52.576;13.568;2022-08-19T09:29:43;23.90;1.00
9410;DHT22;4744;52.576;13.568;2022-08-19T09:32:09;24.00;1.00
9410;DHT22;4744;52.576;13.568;2022-08-19T09:34:36;24.00;1.00
9410;DHT22;4744;52.576;13.568;2022-08-19T09:37:03;24.20;1.00
9410;DHT22;4744;52.576;13.568;2022-08-19T09:39:30;24.30;1.00
9410;DHT22;4744;52.576;13.568;2022-08-19T09:41:57;24.50;1.00
9410;DHT22;4744;52.576;13.568;2022-08-19T09:44:25;24.50;1.00
9410;DHT22;4744;52.576;13.568;2022-08-19T09:46:52;24.50;1.00
9410;DHT22;4744;52.576;13.568;2022-08-19T09:49:19;24.50;1.00
9410;DHT22;4744;52.576;13.568;2022-08-19T09:51:49;24.40;1.00
9410;DHT22;4744;52.576;13.568;2022-08-19T09:54:17;24.20;1.00
9410;DHT22;4744;52.576;13.568;2022-08-19T09:56:44;24.10;1.00
9410;DHT22;4744;52.576;13.568;2022-08-19T09:59:11;23.90;1.00
9410;DHT22;4744;52.576;13.568;2022-08-19T10:01:39;23.80;1.00
9410;DHT22;4744;52.576;13.568;2022-08-19T10:04:06;23.70;1.00
9410;DHT22;4744;52.576;13.568;2022-08-19T10:06:35;23.60;1.00
9410;DHT22;4744;52.576;13.568;2022-08-19T10:09:04;23.70;1.00
9410;DHT22;4744;52.576;13.568;2022-08-19T10:11:32;23.70;1.00
9410;DHT22;4744;52.576;13.568;2022-08-19T10:14:00;23.70;1.00
9410;DHT22;4744;52.576;13.568;2022-08-19T10:16:27;23.70;1.00
9410;DHT22;4744;52.576;13.568;2022-08-19T10:18:55;23.60;1.00
9410;DHT22;4744;52.576;13.568;2022-08-19T10:21:25;23.60;1.00
9410;DHT22;4744;52.576;13.568;2022-08-19T10:23:58;23.50;1.00
9410;DHT22;4744;52.576;13.568;2022-08-19T10:26:28;23.50;1.00
9410;DHT22;4744;52.576;13.568;2022-08-19T10:28:56;23.50;1.00
9410;DHT22;4744;52.576;13.568;2022-08-19T10:31:27;23.50;1.00
9410;DHT22;4744;52.576;13.568;2022-08-19T10:33:56;23.50;1.00
9410;DHT22;4744;52.576;13.568;2022-08-19T10:36:26;23.60;1.00
9410;DHT22;4744;52.576;13.568;2022-08-19T10:38:55;23.60;1.00
9410;DHT22;4744;52.576;13.568;2022-08-19T10:41:25;23.60;1.00
9410;DHT22;4744;52.576;13.568;2022-08-19T10:43:54;23.70;1.00
9410;DHT22;4744;52.576;13.568;2022-08-19T10:46:23;23.70;1.00
9410;DHT22;4744;52.576;13.568;2022-08-19T10:48:51;23.70;1.00
9410;DHT22;4744;52.576;13.568;2022-08-19T10:51:19;23.80;1.00
9410;DHT22;4744;52.576;13.568;2022-08-19T10:54:04;23.80;1.00
9410;DHT22;4744;52.576;13.568;2022-08-19T10:56:32;23.80;1.00
9410;DHT22;4744;52.576;13.568;2022-08-19T10:59:18;23.90;1.00
9410;DHT22;4744;52.576;13.568;2022-08-19T11:01:46;24.00;1.00
9410;DHT22;4744;52.576;13.568;2022-08-19T11:04:14;24.00;1.00
9410;DHT22;4744;52.576;13.568;2022-08-19T11:06:46;24.00;1.00
9410;DHT22;4744;52.576;13.568;2022-08-19T11:09:14;24.00;1.00
9410;DHT22;4744;52.576;13.568;2022-08-19T11:11:42;24.00;1.00
9410;DHT22;4744;52.576;13.568;2022-08-19T11:14:10;24.00;1.00
9410;DHT22;4744;52.576;13.568;2022-08-19T11:16:38;24.00;1.00
9410;DHT22;4744;52.576;13.568;2022-08-19T11:19:06;24.00;1.00
9410;DHT22;4744;52.576;13.568;2022-08-19T11:21:35;24.00;1.00
9410;DHT22;4744;52.576;13.568;2022-08-19T11:24:07;23.90;1.00
9410;DHT22;4744;52.576;13.568;2022-08-19T11:26:36;23.90;1.00
9410;DHT22;4744;52.576;13.568;2022-08-19T11:29:04;23.90;1.00
9410;DHT22;4744;52.576;13.568;2022-08-19T11:31:35;23.80;1.00
9410;DHT22;4744;52.576;13.568;2022-08-19T11:34:09;23.80;1.00
9410;DHT22;4744;52.576;13.568;2022-08-19T11:36:38;23.80;1.00
9410;DHT22;4744;52.576;13.568;2022-08-19T11:39:12;23.80;1.00
9410;DHT22;4744;52.576;13.568;2022-08-19T11:41:40;23.80;1.00
9410;DHT22;4744;52.576;13.568;2022-08-19T11:44:07;23.80;1.00
9410;DHT22;4744;52.576;13.568;2022-08-19T11:46:35;23.80;1.00
9410;DHT22;4744;52.576;13.568;2022-08-19T11:49:03;23.80;1.00
9410;DHT22;4744;52.576;13.568;2022-08-19T11:51:31;23.90;1.00
9410;DHT22;4744;52.576;13.568;2022-08-19T11:53:59;23.80;1.00
9410;DHT22;4744;52.576;13.568;2022-08-19T11:56:28;23.80;1.00
9410;DHT22;4744;52.576;13.568;2022-08-19T11:58:55;23.80;1.00
9410;DHT22;4744;52.576;13.568;2022-08-19T12:01:24;23.70;1.00
9410;DHT22;4744;52.576;13.568;2022-08-19T12:03:53;23.60;1.00
9410;DHT22;4744;52.576;13.568;2022-08-19T12:06:24;23.60;1.00
9410;DHT22;4744;52.576;13.568;2022-08-19T12:08:54;23.60;1.00
9410;DHT22;4744;52.576;13.568;2022-08-19T12:11:22;23.60;1.00
9410;DHT22;4744;52.576;13.568;2022-08-19T12:13:51;23.60;1.00
9410;DHT22;4744;52.576;13.568;2022-08-19T12:16:21;23.60;1.00
9410;DHT22;4744;52.576;13.568;2022-08-19T12:18:48;23.70;1.00
9410;DHT22;4744;52.576;13.568;2022-08-19T12:21:17;23.80;1.00
9410;DHT22;4744;52.576;13.568;2022-08-19T12:23:48;23.80;1.00
9410;DHT22;4744;52.576;13.568;2022-08-19T12:26:16;24.00;1.00
9410;DHT22;4744;52.576;13.568;2022-08-19T12:28:44;24.30;1.00
9410;DHT22;4744;52.576;13.568;2022-08-19T12:31:12;24.50;1.00
9410;DHT22;4744;52.576;13.568;2022-08-19T12:33:39;24.50;1.00
9410;DHT22;4744;52.576;13.568;2022-08-19T12:36:09;24.60;1.00
9410;DHT22;4744;52.576;13.568;2022-08-19T12:38:37;24.50;1.00
9410;DHT22;4744;52.576;13.568;2022-08-19T12:41:05;24.60;1.00
9410;DHT22;4744;52.576;13.568;2022-08-19T12:43:32;24.50;1.00
9410;DHT22;4744;52.576;13.568;2022-08-19T12:46:00;24.50;1.00
9410;DHT22;4744;52.576;13.568;2022-08-19T12:48:28;24.40;1.00
9410;DHT22;4744;52.576;13.568;2022-08-19T12:50:55;24.40;1.00
9410;DHT22;4744;52.576;13.568;2022-08-19T12:53:22;24.40;1.00
9410;DHT22;4744;52.576;13.568;2022-08-19T12:55:54;24.40;1.00
9410;DHT22;4744;52.576;13.568;2022-08-19T12:58:22;24.40;1.00
9410;DHT22;4744;52.576;13.568;2022-08-19T13:00:49;24.40;1.00
9410;DHT22;4744;52.576;13.568;2022-08-19T13:03:16;24.40;1.00
9410;DHT22;4744;52.576;13.568;2022-08-19T13:05:44;24.50;1.00
9410;DHT22;4744;52.576;13.568;2022-08-19T13:08:11;24.70;1.00
9410;DHT22;4744;52.576;13.568;2022-08-19T13:10:38;24.90;1.00
9410;DHT22;4744;52.576;13.568;2022-08-19T13:13:06;25.00;1.00
9410;DHT22;4744;52.576;13.568;2022-08-19T13:15:35;25.10;1.00
9410;DHT22;4744;52.576;13.568;2022-08-19T13:18:03;25.00;1.00
9410;DHT22;4744;52.576;13.568;2022-08-19T13:20:29;25.00;1.00
9410;DHT22;4744;52.576;13.568;2022-08-19T13:22:58;24.80;1.00
9410;DHT22;4744;52.576;13.568;2022-08-19T13:25:25;24.80;1.00
9410;DHT22;4744;52.576;13.568;2022-08-19T13:27:52;24.70;1.00
9410;DHT22;4744;52.576;13.568;2022-08-19T13:30:21;24.70;1.00
9410;DHT22;4744;52.576;13.568;2022-08-19T13:33:05;24.70;1.00
9410;DHT22;4744;52.576;13.568;2022-08-19T13:35:41;24.70;1.00
9410;DHT22;4744;52.576;13.568;2022-08-19T13:38:10;24.80;1.00
9410;DHT22;4744;52.576;13.568;2022-08-19T13:40:39;24.80;1.00
9410;DHT22;4744;52.576;13.568;2022-08-19T13:43:06;24.70;1.00
9410;DHT22;4744;52.576;13.568;2022-08-19T13:45:33;24.80;1.00
9410;DHT22;4744;52.576;13.568;2022-08-19T13:48:02;24.80;1.00
9410;DHT22;4744;52.576;13.568;2022-08-19T13:50:32;24.70;1.00
9410;DHT22;4744;52.576;13.568;2022-08-19T13:53:02;24.80;1.00
9410;DHT22;4744;52.576;13.568;2022-08-19T13:55:30;24.90;1.00
9410;DHT22;4744;52.576;13.568;2022-08-19T13:57:59;25.10;1.00
9410;DHT22;4744;52.576;13.568;2022-08-19T14:00:28;25.10;1.00
9410;DHT22;4744;52.576;13.568;2022-08-19T14:02:56;25.10;1.00
9410;DHT22;4744;52.576;13.568;2022-08-19T14:05:25;25.20;1.00
9410;DHT22;4744;52.576;13.568;2022-08-19T14:07:53;25.20;1.00
9410;DHT22;4744;52.576;13.568;2022-08-19T14:10:21;25.30;1.00
9410;DHT22;4744;52.576;13.568;2022-08-19T14:12:52;25.20;1.00
9410;DHT22;4744;52.576;13.568;2022-08-19T14:15:21;25.20;1.00
9410;DHT22;4744;52.576;13.568;2022-08-19T14:17:48;25.20;1.00
9410;DHT22;4744;52.576;13.568;2022-08-19T14:20:15;25.20;1.00
9410;DHT22;4744;52.576;13.568;2022-08-19T14:22:43;25.10;1.00
9410;DHT22;4744;52.576;13.568;2022-08-19T14:25:13;25.10;1.00
9410;DHT22;4744;52.576;13.568;2022-08-19T14:27:40;25.10;1.00
9410;DHT22;4744;52.576;13.568;2022-08-19T14:30:11;25.00;1.00
9410;DHT22;4744;52.576;13.568;2022-08-19T14:32:39;25.00;1.00
9410;DHT22;4744;52.576;13.568;2022-08-19T14:35:09;25.00;1.00
9410;DHT22;4744;52.576;13.568;2022-08-19T14:37:38;24.90;1.00
9410;DHT22;4744;52.576;13.568;2022-08-19T14:40:06;24.80;1.00
9410;DHT22;4744;52.576;13.568;2022-08-19T14:42:34;24.70;1.00
9410;DHT22;4744;52.576;13.568;2022-08-19T14:45:01;24.70;1.00
9410;DHT22;4744;52.576;13.568;2022-08-19T14:47:31;24.70;1.00
9410;DHT22;4744;52.576;13.568;2022-08-19T14:49:58;24.60;1.00
9410;DHT22;4744;52.576;13.568;2022-08-19T14:52:25;24.70;1.00
9410;DHT22;4744;52.576;13.568;2022-08-19T14:54:52;24.70;1.00
9410;DHT22;4744;52.576;13.568;2022-08-19T14:57:19;24.80;1.00
9410;DHT22;4744;52.576;13.568;2022-08-19T14:59:46;24.80;1.00
9410;DHT22;4744;52.576;13.568;2022-08-19T15:02:14;24.70;1.00
9410;DHT22;4744;52.576;13.568;2022-08-19T15:04:42;24.60;1.00
9410;DHT22;4744;52.576;13.568;2022-08-19T15:07:09;24.50;1.00
9410;DHT22;4744;52.576;13.568;2022-08-19T15:09:36;24.50;1.00
9410;DHT22;4744;52.576;13.568;2022-08-19T15:12:04;24.30;1.00
9410;DHT22;4744;52.576;13.568;2022-08-19T15:14:31;24.30;1.00
9410;DHT22;4744;52.576;13.568;2022-08-19T15:17:01;24.20;1.00
9410;DHT22;4744;52.576;13.568;2022-08-19T15:19:29;24.10;1.00
9410;DHT22;4744;52.576;13.568;2022-08-19T15:21:57;24.00;1.00
9410;DHT22;4744;52.576;13.568;2022-08-19T15:24:24;23.90;1.00
9410;DHT22;4744;52.576;13.568;2022-08-19T15:26:52;23.90;1.00
9410;DHT22;4744;52.576;13.568;2022-08-19T15:29:21;23.80;1.00
9410;DHT22;4744;52.576;13.568;2022-08-19T15:31:50;23.70;1.00
9410;DHT22;4744;52.576;13.568;2022-08-19T15:34:17;23.70;1.00
9410;DHT22;4744;52.576;13.568;2022-08-19T15:36:44;23.60;1.00
9410;DHT22;4744;52.576;13.568;2022-08-19T15:39:12;23.60;1.00
9410;DHT22;4744;52.576;13.568;2022-08-19T15:41:39;23.60;1.00
9410;DHT22;4744;52.576;13.568;2022-08-19T15:44:10;23.50;1.00
9410;DHT22;4744;52.576;13.568;2022-08-19T15:46:39;23.50;1.00
9410;DHT22;4744;52.576;13.568;2022-08-19T15:49:07;23.50;1.00
9410;DHT22;4744;52.576;13.568;2022-08-19T15:51:34;23.40;1.00
9410;DHT22;4744;52.576;13.568;2022-08-19T15:54:03;23.40;1.00
9410;DHT22;4744;52.576;13.568;2022-08-19T15:56:31;23.40;1.00
9410;DHT22;4744;52.576;13.568;2022-08-19T15:59:31;23.30;1.00
9410;DHT22;4744;52.576;13.568;2022-08-19T16:02:17;23.30;1.00
9410;DHT22;4744;52.576;13.568;2022-08-19T16:05:02;23.30;1.00
9410;DHT22;4744;52.576;13.568;2022-08-19T16:07:46;23.30;1.00